MASCOMA R @ MASCOMA: From 01/10/2019 02:00 to 01/24/2019 10:00

Date STAGE [FT] FLOW [CFS] LAKE ELEVATION [FT] PRECIPITATION INCREMENT [IN] AIR TEMPERATURE [F]
01/24/2019 03:00 2.72 135.6 747.15 0.00 32.3
01/24/2019 02:00 2.72 135.6 747.15 0.00 32.2
01/24/2019 01:00 2.73 137.9 747.14 0.00 32.2
01/24/2019 00:00 2.72 135.6 747.14 0.00 32.0
01/23/2019 23:00 2.73 137.9 747.14 0.00 32.1
01/23/2019 22:00 2.72 135.6 747.14 0.00 31.6
01/23/2019 21:00 2.72 135.6 747.14 0.00 31.0
01/23/2019 20:00 2.72 135.6 747.14 0.00 30.7
01/23/2019 19:00 2.72 135.6 747.14 0.00 30.7
01/23/2019 18:00 2.71 133.3 747.14 0.00 30.6
01/23/2019 17:00 2.72 135.6 747.14 0.00 30.8
01/23/2019 16:00 2.72 135.6 747.14 0.00 30.7
01/23/2019 15:00 2.72 135.6 747.14 0.00 30.5
01/23/2019 14:00 2.72 135.6 747.14 0.00 30.0
01/23/2019 13:00 2.73 137.9 747.14 0.00 29.2
01/23/2019 12:00 2.72 135.6 747.14 0.00 27.6
01/23/2019 11:00 2.72 135.6 747.14 0.00 25.3
01/23/2019 10:00 2.73 137.9 747.14 0.00 21.4
01/23/2019 09:00 2.73 137.9 747.15 0.00 18.9
01/23/2019 08:00 2.74 140.3 747.15 0.00 16.8
01/23/2019 07:00 2.74 140.3 747.15 0.00 15.5
01/23/2019 06:00 2.74 140.3 747.15 0.00 14.7
01/23/2019 05:00 2.74 140.3 747.15 0.00 12.9
01/23/2019 04:00 2.74 140.3 747.15 0.00 11.5
01/23/2019 03:00 2.74 140.3 747.15 0.00 11.6
01/23/2019 02:00 2.74 140.3 747.15 0.00 8.9
01/23/2019 01:00 2.74 140.3 747.15 0.00 8.8
01/23/2019 00:00 2.74 140.3 747.15 0.00 7.4
01/22/2019 23:00 2.74 140.3 747.16 0.00 6.6
01/22/2019 22:00 2.74 140.3 747.16 0.00 5.3
01/22/2019 21:00 2.74 140.3 747.16 0.00 7.6
01/22/2019 20:00 2.74 140.3 747.16 0.00 8.0
01/22/2019 19:00 2.75 142.7 747.16 0.00 4.4
01/22/2019 18:00 2.74 140.3 747.16 0.00 7.4
01/22/2019 17:00 2.74 140.3 747.16 0.00 10.0
01/22/2019 16:00 2.74 140.3 747.16 0.00 16.9
01/22/2019 15:00 2.74 140.3 747.16 0.00 19.6
01/22/2019 14:00 2.75 142.7 747.17 0.00 19.8
01/22/2019 13:00 2.73 137.9 747.17 0.00 19.6
01/22/2019 12:00 2.74 140.3 747.17 0.00 18.6
01/22/2019 11:00 2.73 137.9 747.17 0.00 14.4
01/22/2019 10:00 2.73 137.9 747.17 0.00 11.4
01/22/2019 09:00 2.73 137.9 747.17 0.00 6.1
01/22/2019 08:00 2.73 137.9 747.17 0.00 -2.1
01/22/2019 07:00 2.73 137.9 747.17 0.00 -5.1
01/22/2019 06:00 2.74 140.3 747.17 0.00 -2.5
01/22/2019 05:00 2.74 140.3 747.17 0.00 -0.9
01/22/2019 04:00 2.74 140.3 747.17 0.00 -1.0
01/22/2019 03:00 2.74 140.3 747.18 0.00 0.2
01/22/2019 02:00 2.74 140.3 747.18 0.00 0.3
01/22/2019 01:00 2.74 140.3 747.18 0.00 0.5
01/22/2019 00:00 2.74 140.3 747.17 0.00 0.8
01/21/2019 23:00 2.73 137.9 747.17 0.00 0.9
01/21/2019 22:00 2.73 137.9 747.17 0.00 1.2
01/21/2019 21:00 2.73 137.9 747.17 0.00 1.2
01/21/2019 20:00 2.73 137.9 747.17 0.00 1.0
01/21/2019 19:00 2.73 137.9 747.17 0.00 0.4
01/21/2019 18:00 2.73 137.9 747.17 0.00 0.3
01/21/2019 17:00 2.73 137.9 747.17 0.00 -0.4
01/21/2019 16:00 2.74 140.3 747.18 0.00 -0.6
01/21/2019 15:00 2.74 140.3 747.18 0.00 0.0
01/21/2019 14:00 2.74 140.3 747.18 0.00 0.9
01/21/2019 13:00 2.74 140.3 747.18 0.00 0.6
01/21/2019 12:00 2.74 140.3 747.17 0.00 0.1
01/21/2019 11:00 2.74 140.3 747.17 0.00 -1.0
01/21/2019 10:00 2.74 140.3 747.17 0.00 -3.3
01/21/2019 09:00 2.73 137.9 747.17 0.00 -3.9
01/21/2019 08:00 2.74 140.3 747.18 0.00 -4.0
01/21/2019 07:00 2.73 137.9 747.18 0.00 -4.7
01/21/2019 06:00 2.74 140.3 747.18 0.00 -3.5
01/21/2019 05:00 2.75 142.7 747.18 0.00 -2.9
01/21/2019 04:00 2.74 140.3 747.18 0.00 -2.8
01/21/2019 03:00 2.73 137.9 747.18 0.00 -2.4
01/21/2019 02:00 2.73 137.9 747.17 0.00 -1.6
01/21/2019 01:00 2.73 137.9 747.17 0.00 -1.4
01/21/2019 00:00 2.72 135.6 747.17 0.00 -0.9
01/20/2019 23:00 2.72 135.6 747.17 0.00 -0.9
01/20/2019 22:00 2.73 137.9 747.17 0.00 -0.6
01/20/2019 21:00 2.74 140.3 747.17 0.00 1.0
01/20/2019 20:00 2.73 137.9 747.17 0.00 2.6
01/20/2019 19:00 2.73 137.9 747.17 0.00 6.6
01/20/2019 18:00 2.74 140.3 747.18 0.00 10.3
01/20/2019 17:00 2.74 140.3 747.18 0.00 16.9
01/20/2019 16:00 2.74 140.3 747.18 0.00 16.6
01/20/2019 15:00 2.73 137.9 747.18 0.00 16.9
01/20/2019 14:00 2.74 140.3 747.18 0.00 15.8
01/20/2019 13:00 2.73 137.9 747.16 0.00 15.7
01/20/2019 12:00 2.72 135.6 747.15 0.00 16.4
01/20/2019 11:00 2.72 135.6 747.15 0.00 16.0
01/20/2019 10:00 2.72 135.6 747.15 0.00 15.5
01/20/2019 09:00 2.72 135.6 747.15 0.00 14.9
01/20/2019 08:00 2.72 135.6 747.15 0.00 14.3
01/20/2019 07:00 2.72 135.6 747.15 0.00 14.3
01/20/2019 06:00 2.72 135.6 747.14 0.00 13.8
01/20/2019 05:00 2.71 133.3 747.14 0.00 13.6
01/20/2019 04:00 2.71 133.3 747.13 0.00 14.0
01/20/2019 03:00 2.71 133.3 747.13 0.00 14.6
01/20/2019 02:00 2.71 133.3 747.12 0.00 15.0
01/20/2019 01:00 2.71 133.3 747.12 0.00 15.2
01/20/2019 00:00 2.70 131.0 747.11 0.00 14.8
01/19/2019 23:00 2.71 133.3 747.11 0.00 14.9
01/19/2019 22:00 2.71 133.3 747.11 0.00 14.4
01/19/2019 21:00 2.70 131.0 747.10 0.00 12.2
01/19/2019 20:00 2.70 131.0 747.10 0.00 13.3
01/19/2019 19:00 2.70 131.0 747.10 0.00 13.3
01/19/2019 18:00 2.70 131.0 747.10 0.00 13.1
01/19/2019 17:00 2.70 131.0 747.09 0.00 14.1
01/19/2019 16:00 2.69 128.9 747.09 0.00 16.7
01/19/2019 15:00 2.69 128.9 747.09 0.00 17.7
01/19/2019 14:00 2.69 128.9 747.09 0.00 18.0
01/19/2019 13:00 2.70 131.0 747.09 0.00 17.4
01/19/2019 12:00 2.70 131.0 747.09 0.00 16.4
01/19/2019 11:00 2.70 131.0 747.09 0.00 15.4
01/19/2019 10:00 2.69 128.9 747.09 0.00 13.1
01/19/2019 09:00 2.69 128.9 747.09 0.00 14.5
01/19/2019 08:00 2.69 128.9 747.09 0.00 14.4
01/19/2019 07:00 2.69 128.9 747.09 0.00 15.5
01/19/2019 06:00 2.69 128.9 747.09 0.00 18.5
01/19/2019 05:00 2.69 128.9 747.09 0.00 19.9
01/19/2019 04:00 2.68 126.8 747.09 0.00 20.1
01/19/2019 03:00 2.69 128.9 747.09 0.00 20.8
01/19/2019 02:00 2.69 128.9 747.09 0.00 22.7
01/19/2019 01:00 2.69 128.9 747.09 0.00 24.4
01/19/2019 00:00 2.68 126.8 747.09 0.00 27.1
01/18/2019 23:00 2.68 126.8 747.09 0.00 28.4
01/18/2019 22:00 2.68 126.8 747.09 0.00 28.8
01/18/2019 21:00 2.67 124.8 747.08 0.00 27.3
01/18/2019 20:00 2.67 124.8 747.08 0.00 26.2
01/18/2019 19:00 2.67 124.8 747.08 0.00 25.9
01/18/2019 18:00 2.67 124.8 747.08 0.00 24.7
01/18/2019 17:00 2.67 124.8 747.08 0.00 26.0
01/18/2019 16:00 2.68 126.8 747.08 0.00 26.2
01/18/2019 15:00 2.68 126.8 747.08 0.00 26.1
01/18/2019 14:00 2.68 126.8 747.08 0.00 25.1
01/18/2019 13:00 2.68 126.8 747.08 0.00 24.2
01/18/2019 12:00 2.68 126.8 747.08 0.00 22.8
01/18/2019 11:00 2.68 126.8 747.08 0.00 21.3
01/18/2019 10:00 2.68 126.8 747.08 0.00 19.7
01/18/2019 09:00 2.68 126.8 747.08 0.00 18.3
01/18/2019 08:00 2.67 124.8 747.08 0.00 17.5
01/18/2019 07:00 2.68 126.8 747.08 0.00 16.9
01/18/2019 06:00 2.68 126.8 747.08 0.00 16.8
01/18/2019 05:00 2.68 126.8 747.07 0.00 17.1
01/18/2019 04:00 2.69 128.9 747.07 0.00 16.2
01/18/2019 03:00 2.68 126.8 747.07 0.00 15.5
01/18/2019 02:00 2.68 126.8 747.08 0.00 13.9
01/18/2019 01:00 2.68 126.8 747.08 0.00 13.0
01/18/2019 00:00 2.68 126.8 747.08 0.00 12.0
01/17/2019 23:00 2.68 126.8 747.07 0.00 12.3
01/17/2019 22:00 2.68 126.8 747.07 0.00 11.6
01/17/2019 21:00 2.69 128.9 747.07 0.00 11.1
01/17/2019 20:00 2.68 126.8 747.07 0.00 11.1
01/17/2019 19:00 2.68 126.8 747.07 0.00 11.7
01/17/2019 18:00 2.68 126.8 747.07 0.00 11.1
01/17/2019 17:00 2.67 124.8 747.07 0.00 11.0
01/17/2019 16:00 2.67 124.8 747.07 0.00 14.5
01/17/2019 15:00 2.67 124.8 747.07 0.00 13.1
01/17/2019 14:00 2.67 124.8 747.07 0.00 17.9
01/17/2019 13:00 2.67 124.8 747.06 0.00 19.5
01/17/2019 12:00 2.67 124.8 747.06 0.00 17.6
01/17/2019 11:00 2.68 126.8 747.06 0.00 15.6
01/17/2019 10:00 2.68 126.8 747.06 0.00 13.8
01/17/2019 09:00 2.67 124.8 747.06 0.00 12.1
01/17/2019 08:00 2.68 126.8 747.06 0.00 -0.2
01/17/2019 07:00 2.67 124.8 747.05 0.00 -1.8
01/17/2019 06:00 2.67 124.8 747.05 0.00 -0.7
01/17/2019 05:00 2.67 124.8 747.05 0.00 5.3
01/17/2019 04:00 2.66 122.8 747.05 0.00 6.6
01/17/2019 03:00 2.66 122.8 747.05 0.00 7.9
01/17/2019 02:00 2.66 122.8 747.05 0.00 9.7
01/17/2019 01:00 2.65 120.8 747.05 0.00 11.2
01/17/2019 00:00 2.66 122.8 747.04 0.00 12.2
01/16/2019 23:00 2.66 122.8 747.04 0.00 14.7
01/16/2019 22:00 2.65 120.8 747.04 0.00 18.9
01/16/2019 21:00 2.64 118.8 747.04 0.00 22.4
01/16/2019 20:00 2.64 118.8 747.03 0.00 26.3
01/16/2019 19:00 2.63 116.8 747.03 0.00 29.1
01/16/2019 18:00 2.64 118.8 747.03 0.00 29.7
01/16/2019 17:00 2.63 116.8 747.03 0.00 31.1
01/16/2019 16:00 2.63 116.8 747.03 0.00 31.6
01/16/2019 15:00 2.63 116.8 747.03 0.01 32.1
01/16/2019 14:00 2.64 118.8 747.03 0.01 32.9
01/16/2019 13:00 2.85 167.2 747.03 0.02 33.6
01/16/2019 12:00 2.85 167.2 747.03 0.00 30.8
01/16/2019 11:00 2.85 167.2 747.03 0.00 29.1
01/16/2019 10:00 2.85 167.2 747.03 0.00 28.6
01/16/2019 09:00 2.85 167.2 747.03 0.00 26.6
01/16/2019 08:00 2.86 169.7 747.03 0.00 25.8
01/16/2019 07:00 2.85 167.2 747.03 0.00 23.2
01/16/2019 06:00 2.85 167.2 747.03 0.00 22.5
01/16/2019 05:00 2.86 169.7 747.03 0.00 22.3
01/16/2019 04:00 2.86 169.7 747.04 0.00 21.3
01/16/2019 03:00 2.86 169.7 747.04 0.00 21.8
01/16/2019 02:00 2.86 169.7 747.04 0.00 22.2
01/16/2019 01:00 2.87 172.3 747.04 0.00 22.3
01/16/2019 00:00 2.87 172.3 747.04 0.00 22.6
01/15/2019 23:00 2.86 169.7 747.04 0.00 22.9
01/15/2019 22:00 2.87 172.3 747.05 0.00 22.6
01/15/2019 21:00 2.87 172.3 747.05 0.00 22.9
01/15/2019 20:00 2.87 172.3 747.05 0.00 22.8
01/15/2019 19:00 2.87 172.3 747.05 0.00 22.8
01/15/2019 18:00 2.87 172.3 747.05 0.00 23.6
01/15/2019 17:00 2.87 172.3 747.05 0.00 24.5
01/15/2019 16:00 2.87 172.3 747.05 0.00 25.2
01/15/2019 15:00 2.88 174.8 747.05 0.00 25.1
01/15/2019 14:00 2.88 174.8 747.05 0.00 23.5
01/15/2019 13:00 2.88 174.8 747.06 0.00 22.5
01/15/2019 12:00 2.88 174.8 747.06 0.00 20.2
01/15/2019 11:00 2.88 174.8 747.06 0.00 19.4
01/15/2019 10:00 2.89 177.4 747.06 0.00 16.2
01/15/2019 09:00 2.89 177.4 747.06 0.00 13.1
01/15/2019 08:00 2.89 177.4 747.06 0.00 11.0
01/15/2019 07:00 2.89 177.4 747.06 0.00 9.2
01/15/2019 06:00 2.89 177.4 747.07 0.00 7.7
01/15/2019 05:00 2.89 177.4 747.07 0.00 7.7
01/15/2019 04:00 2.89 177.4 747.07 0.00 8.5
01/15/2019 03:00 2.89 177.4 747.07 0.00 7.3
01/15/2019 02:00 2.89 177.4 747.08 0.00 8.2
01/15/2019 01:00 2.90 180.0 747.08 0.00 10.7
01/15/2019 00:00 2.90 180.0 747.08 0.00 12.4
01/14/2019 23:00 2.90 180.0 747.08 0.00 13.8
01/14/2019 22:00 2.90 180.0 747.09 0.00 13.4
01/14/2019 21:00 2.90 180.0 747.09 0.00 15.3
01/14/2019 20:00 2.90 180.0 747.09 0.00 14.5
01/14/2019 19:00 2.91 182.2 747.09 0.00 15.1
01/14/2019 18:00 2.91 182.2 747.09 0.00 16.8
01/14/2019 17:00 2.91 182.2 747.10 0.00 18.7
01/14/2019 16:00 2.91 182.2 747.10 0.00 20.5
01/14/2019 15:00 2.91 182.2 747.10 0.00 21.9
01/14/2019 14:00 2.91 182.2 747.11 0.00 22.8
01/14/2019 13:00 2.92 184.6 747.11 0.00 21.0
01/14/2019 12:00 2.93 187.2 747.12 0.00 16.5
01/14/2019 11:00 2.93 187.2 747.12 0.00 15.7
01/14/2019 10:00 2.94 190.1 747.13 0.00 5.7
01/14/2019 09:00 2.94 190.1 747.13 0.00 -2.2
01/14/2019 08:00 2.94 190.1 747.13 0.00 -8.0
01/14/2019 07:00 2.94 190.1 747.13 0.00 -7.9
01/14/2019 06:00 2.94 190.1 747.13 0.00 -6.9
01/14/2019 05:00 2.95 193.2 747.14 0.00 -6.0
01/14/2019 04:00 2.95 193.2 747.14 0.00 -0.7
01/14/2019 03:00 2.96 196.6 747.14 0.00 -2.2
01/14/2019 02:00 2.97 200.4 747.15 0.00 -3.4
01/14/2019 01:00 2.97 200.4 747.15 0.00 2.6
01/14/2019 00:00 2.97 200.4 747.15 0.00 3.5
01/13/2019 23:00 2.97 200.4 747.16 0.00 4.5
01/13/2019 22:00 2.97 200.4 747.16 0.00 5.0
01/13/2019 21:00 2.97 200.4 747.17 0.00 5.2
01/13/2019 20:00 2.98 204.6 747.17 0.00 6.9
01/13/2019 19:00 2.98 204.6 747.17 0.00 9.2
01/13/2019 18:00 2.98 204.6 747.18 0.00 10.8
01/13/2019 17:00 2.98 204.6 747.18 0.00 13.9
01/13/2019 16:00 2.98 204.6 747.18 0.00 16.5
01/13/2019 15:00 2.98 204.6 747.19 0.00 19.8
01/13/2019 14:00 2.98 204.6 747.19 0.00 21.7
01/13/2019 13:00 2.99 209.4 747.19 0.00 19.1
01/13/2019 12:00 2.99 209.4 747.20 0.00 17.2
01/13/2019 11:00 2.99 209.4 747.20 0.00 13.5
01/13/2019 10:00 3.00 215.0 747.20 0.00 13.4
01/13/2019 09:00 3.00 215.0 747.20 0.00 11.7
01/13/2019 08:00 3.00 215.0 747.21 0.00 5.4
01/13/2019 07:00 3.01 218.6 747.21 0.00 1.2
01/13/2019 06:00 3.01 218.6 747.22 0.00 2.5
01/13/2019 05:00 3.02 222.3 747.22 0.00 2.2
01/13/2019 04:00 3.01 218.6 747.22 0.00 3.5
01/13/2019 03:00 3.02 222.3 747.23 0.00 4.1
01/13/2019 02:00 3.03 226.0 747.23 0.00 3.6
01/13/2019 01:00 3.03 226.0 747.24 0.00 4.5
01/13/2019 00:00 3.04 229.7 747.25 0.00 4.9
01/12/2019 23:00 3.04 229.7 747.25 0.00 5.3
01/12/2019 22:00 3.04 229.7 747.26 0.00 6.8
01/12/2019 21:00 3.05 233.3 747.26 0.00 7.9
01/12/2019 20:00 3.04 229.7 747.26 0.00 8.4
01/12/2019 19:00 3.04 229.7 747.26 0.00 9.3
01/12/2019 18:00 3.04 229.7 747.27 0.00 11.3
01/12/2019 17:00 3.04 229.7 747.27 0.00 13.4
01/12/2019 16:00 3.05 233.3 747.28 0.00 15.8
01/12/2019 15:00 3.05 233.3 747.28 0.00 20.3
01/12/2019 14:00 3.06 237.1 747.29 0.00 20.6
01/12/2019 13:00 3.06 237.1 747.29 0.00 21.1
01/12/2019 12:00 3.06 237.1 747.30 0.00 19.1
01/12/2019 11:00 3.07 240.8 747.30 0.00 13.4
01/12/2019 10:00 3.08 244.5 747.30 0.00 8.9
01/12/2019 09:00 3.08 244.5 747.31 0.00 9.8
01/12/2019 08:00 3.08 244.5 747.31 0.00 1.8
01/12/2019 07:00 3.08 244.5 747.31 0.00 -3.4
01/12/2019 06:00 3.09 248.2 747.32 0.00 -3.3
01/12/2019 05:00 3.10 252.0 747.33 0.00 -1.4
01/12/2019 04:00 3.10 252.0 747.33 0.00 -0.7
01/12/2019 03:00 3.10 252.0 747.34 0.00 -0.5
01/12/2019 02:00 3.11 255.7 747.34 0.00 0.7
01/12/2019 01:00 3.11 255.7 747.35 0.00 -0.2
01/12/2019 00:00 3.12 259.5 747.35 0.00 2.5
01/11/2019 23:00 3.12 259.5 747.36 0.00 2.3
01/11/2019 22:00 3.12 259.5 747.37 0.00 4.0
01/11/2019 21:00 3.12 259.5 747.37 0.00 4.0
01/11/2019 20:00 3.13 263.3 747.38 0.00 4.6
01/11/2019 19:00 3.13 263.3 747.38 0.00 5.6
01/11/2019 18:00 3.13 263.3 747.38 0.00 7.5
01/11/2019 17:00 3.14 267.1 747.39 0.00 10.2
01/11/2019 16:00 3.14 267.1 747.39 0.00 12.1
01/11/2019 15:00 3.14 267.1 747.39 0.00 17.8
01/11/2019 14:00 3.14 267.1 747.39 0.00 19.9
01/11/2019 13:00 3.14 267.1 747.40 0.00 20.1
01/11/2019 12:00 3.15 270.9 747.40 0.00 18.1
01/11/2019 11:00 3.15 270.9 747.40 0.00 18.0
01/11/2019 10:00 3.15 270.9 747.41 0.00 17.8
01/11/2019 09:00 3.15 270.9 747.41 0.00 17.2
01/11/2019 08:00 3.15 270.9 747.42 0.00 14.4
01/11/2019 07:00 3.16 274.7 747.42 0.00 13.9
01/11/2019 06:00 3.16 274.7 747.43 0.00 13.3
01/11/2019 05:00 3.16 274.7 747.43 0.00 13.6
01/11/2019 04:00 3.16 274.7 747.43 0.00 13.4
01/11/2019 03:00 3.16 274.7 747.43 0.00 14.6
01/11/2019 02:00 3.17 278.5 747.44 0.00 15.2
01/11/2019 01:00 3.16 274.7 747.44 0.00 16.2
01/11/2019 00:00 3.17 278.5 747.45 0.00 17.3
01/10/2019 23:00 3.17 278.5 747.45 0.00 17.5
01/10/2019 22:00 3.17 278.5 747.46 0.00 18.6
01/10/2019 21:00 3.18 282.3 747.46 0.00 18.0
01/10/2019 20:00 3.18 282.3 747.46 0.00 18.9
01/10/2019 19:00 3.18 282.3 747.46 0.00 19.5
01/10/2019 18:00 3.18 282.3 747.46 0.00 20.2
01/10/2019 17:00 3.18 282.3 747.47 0.00 21.8
01/10/2019 16:00 3.18 282.3 747.47 0.00 23.5
01/10/2019 15:00 3.18 282.3 747.47 0.00 24.1
01/10/2019 14:00 3.18 282.3 747.47 0.00 24.1
01/10/2019 13:00 3.18 282.3 747.47 0.00 25.7
01/10/2019 12:00 3.18 282.3 747.06 0.00 26.3
01/10/2019 11:00 3.18 282.3 747.48 0.00 25.0
01/10/2019 10:00 3.18 282.3 747.48 0.00 25.9
01/10/2019 09:00 3.19 286.2 747.49 0.00 26.8
01/10/2019 08:00 3.19 286.2 747.49 0.00 26.5
01/10/2019 07:00 3.19 286.2 747.50 0.00 26.2
01/10/2019 06:00 3.19 286.2 747.50 0.00 26.3
01/10/2019 05:00 3.19 286.2 747.50 0.00 26.7
01/10/2019 04:00 -- -- -- -- --
01/10/2019 03:00 -- -- -- -- --
01/10/2019 02:00 -- -- -- -- --